createdAt,value
2022-11-20T00:01:08.122Z,101151.03
2022-11-20T00:02:10.589Z,101150.34
2022-11-20T00:03:14.552Z,101153.44
2022-11-20T00:04:19.438Z,101150.84
2022-11-20T00:05:22.156Z,101155.38
2022-11-20T00:06:26.008Z,101153.53
2022-11-20T00:07:28.653Z,101158.31
2022-11-20T00:08:32.262Z,101156.00
2022-11-20T00:09:34.596Z,101157.38
2022-11-20T00:10:38.617Z,101153.53
2022-11-20T00:11:40.905Z,101160.81
2022-11-20T00:12:44.168Z,101165.44
2022-11-20T00:13:47.252Z,101163.69
2022-11-20T00:14:50.554Z,101161.09
2022-11-20T00:15:58.682Z,101157.88
2022-11-20T00:17:02.091Z,101152.56
2022-11-20T00:18:04.378Z,101165.59
2022-11-20T00:19:07.626Z,101168.34
2022-11-20T00:20:12.788Z,101155.16
2022-11-20T00:21:18.286Z,101153.28
2022-11-20T00:22:20.522Z,101161.28
2022-11-20T00:23:23.840Z,101162.41
2022-11-20T00:24:26.170Z,101158.44
2022-11-20T00:25:29.525Z,101155.19
2022-11-20T00:26:31.767Z,101156.97
2022-11-20T00:27:35.257Z,101164.56
2022-11-20T00:28:38.143Z,101154.03
2022-11-20T00:29:41.629Z,101155.03
2022-11-20T00:30:44.078Z,101166.06
2022-11-20T00:31:47.570Z,101158.75
2022-11-20T00:32:49.928Z,101166.44
2022-11-20T00:33:53.956Z,101159.06
2022-11-20T00:34:56.465Z,101163.41
2022-11-20T00:36:05.024Z,101161.00
2022-11-20T00:37:07.164Z,101161.31
2022-11-20T00:38:10.307Z,101160.28
2022-11-20T00:39:12.671Z,101168.78
2022-11-20T00:40:16.098Z,101164.91
2022-11-20T00:41:18.372Z,101157.97
2022-11-20T00:42:21.882Z,101161.53
2022-11-20T00:43:24.200Z,101162.78
2022-11-20T00:44:27.568Z,101154.38
2022-11-20T00:45:29.932Z,101153.09
2022-11-20T00:46:33.405Z,101162.69
2022-11-20T00:47:35.610Z,101168.59
2022-11-20T00:48:39.085Z,101168.56
2022-11-20T00:49:41.257Z,101166.72
2022-11-20T00:50:44.583Z,101167.84
2022-11-20T00:51:48.439Z,101172.50
2022-11-20T00:52:51.623Z,101164.56
2022-11-20T00:53:56.595Z,101176.16
2022-11-20T00:54:59.909Z,101171.00
2022-11-20T00:56:04.392Z,101171.16
2022-11-20T00:57:07.654Z,101169.75
2022-11-20T00:58:14.126Z,101175.00
2022-11-20T00:59:17.840Z,101170.88
2022-11-20T01:00:20.189Z,101172.00
2022-11-20T01:01:26.374Z,101176.53
2022-11-20T01:02:28.701Z,101170.09
2022-11-20T01:03:33.747Z,101176.31
2022-11-20T01:04:35.926Z,101172.84
2022-11-20T01:05:39.321Z,101180.16
2022-11-20T01:06:41.572Z,101174.09
2022-11-20T01:07:46.344Z,101179.44
2022-11-20T01:08:50.277Z,101174.31
2022-11-20T01:09:53.672Z,101173.47
2022-11-20T01:11:00.645Z,101174.00
2022-11-20T01:12:03.888Z,101177.50
2022-11-20T01:13:25.886Z,101181.38
2022-11-20T01:14:29.235Z,101177.28
2022-11-20T01:15:31.477Z,101184.47
2022-11-20T01:16:37.203Z,101187.69
2022-11-20T01:17:39.496Z,101187.13
2022-11-20T01:18:44.748Z,101188.13
2022-11-20T01:19:50.302Z,101191.09
2022-11-20T01:20:53.614Z,101188.63
2022-11-20T01:21:57.284Z,101181.19
2022-11-20T01:23:00.852Z,101190.69
2022-11-20T01:24:05.013Z,101184.75
2022-11-20T01:25:07.672Z,101190.31
2022-11-20T01:26:12.712Z,101189.66
2022-11-20T01:27:15.962Z,101184.31
2022-11-20T01:28:18.593Z,101180.78
2022-11-20T01:29:24.365Z,101185.06
2022-11-20T01:30:26.869Z,101191.00
2022-11-20T01:31:31.604Z,101183.28
2022-11-20T01:32:33.980Z,101184.09
2022-11-20T01:33:37.404Z,101183.53
2022-11-20T01:34:39.834Z,101180.78
2022-11-20T01:35:43.048Z,101178.03
2022-11-20T01:36:45.650Z,101182.25
2022-11-20T01:37:49.159Z,101185.59
2022-11-20T01:38:54.588Z,101184.63
2022-11-20T01:39:58.067Z,101188.72
2022-11-20T01:41:00.416Z,101189.13
2022-11-20T01:42:21.538Z,101187.56
2022-11-20T01:43:24.043Z,101194.22
2022-11-20T01:44:51.245Z,101196.91
2022-11-20T01:46:15.634Z,101199.97
2022-11-20T01:47:21.464Z,101203.00
2022-11-20T01:48:27.439Z,101210.31
2022-11-20T01:49:35.710Z,101210.66
2022-11-20T01:50:39.204Z,101209.53
2022-11-20T01:51:45.561Z,101212.38
2022-11-20T01:52:53.471Z,101212.94
2022-11-20T01:54:01.313Z,101208.72
2022-11-20T01:55:08.775Z,101210.38
2022-11-20T01:56:14.931Z,101213.59
2022-11-20T01:57:21.603Z,101212.38
2022-11-20T01:58:29.865Z,101217.81
2022-11-20T01:59:33.349Z,101209.56
2022-11-20T02:00:36.050Z,101209.56
2022-11-20T02:01:40.291Z,101218.97
2022-11-20T02:02:47.148Z,101201.84
2022-11-20T02:03:51.775Z,101200.13
2022-11-20T02:04:58.548Z,101210.78
2022-11-20T02:06:11.013Z,101210.16
2022-11-20T02:07:13.908Z,101203.53
2022-11-20T02:08:18.330Z,101210.31
2022-11-20T02:09:22.403Z,101207.91
2022-11-20T02:10:26.207Z,101206.69
2022-11-20T02:11:29.225Z,101210.72
2022-11-20T02:12:49.907Z,101210.56
2022-11-20T02:13:53.371Z,101207.34
2022-11-20T02:14:55.680Z,101208.63
2022-11-20T02:15:58.110Z,101212.00
2022-11-20T02:17:01.259Z,101209.28
2022-11-20T02:18:03.784Z,101209.84
2022-11-20T02:19:12.152Z,101206.81
2022-11-20T02:20:14.693Z,101211.38
2022-11-20T02:21:27.593Z,101198.97
2022-11-20T02:22:35.434Z,101195.28
2022-11-20T02:23:41.852Z,101198.03
2022-11-20T02:24:47.680Z,101209.41
2022-11-20T02:25:53.755Z,101197.69
2022-11-20T02:27:01.309Z,101210.78
2022-11-20T02:28:04.135Z,101200.56
2022-11-20T02:29:07.707Z,101200.22
2022-11-20T02:30:12.237Z,101197.47
2022-11-20T02:31:15.477Z,101195.34
2022-11-20T02:32:22.080Z,101189.44
2022-11-20T02:33:25.667Z,101197.13
2022-11-20T02:34:27.974Z,101192.41
2022-11-20T02:35:47.487Z,101199.91
2022-11-20T02:36:50.843Z,101208.53
2022-11-20T02:37:57.236Z,101198.66
2022-11-20T02:38:59.570Z,101202.94
2022-11-20T02:40:04.930Z,101193.84
2022-11-20T02:41:07.157Z,101196.50
2022-11-20T02:42:10.475Z,101196.34
2022-11-20T02:43:13.064Z,101196.22
2022-11-20T02:44:16.287Z,101197.97
2022-11-20T02:45:18.667Z,101202.47
2022-11-20T02:46:22.105Z,101196.34
2022-11-20T02:47:24.390Z,101190.09
2022-11-20T02:48:30.215Z,101198.63
2022-11-20T02:49:35.836Z,101200.59
2022-11-20T02:50:41.011Z,101200.59
2022-11-20T02:51:44.261Z,101200.00
2022-11-20T02:52:46.420Z,101201.03
2022-11-20T02:53:49.805Z,101196.59
2022-11-20T02:54:52.124Z,101197.91
2022-11-20T02:55:56.724Z,101200.53
2022-11-20T02:56:58.969Z,101195.75
2022-11-20T02:58:02.264Z,101205.09
2022-11-20T02:59:05.628Z,101198.50
2022-11-20T03:00:10.138Z,101191.09
2022-11-20T03:01:12.384Z,101195.28
2022-11-20T03:02:16.299Z,101199.31
2022-11-20T03:03:18.569Z,101196.34
2022-11-20T03:04:22.360Z,101193.72
2022-11-20T03:05:24.610Z,101199.63
2022-11-20T03:06:27.995Z,101196.03
2022-11-20T03:07:30.300Z,101196.22
2022-11-20T03:08:33.858Z,101195.53
2022-11-20T03:09:36.107Z,101194.31
2022-11-20T03:10:39.379Z,101194.13
2022-11-20T03:11:43.495Z,101200.25
2022-11-20T03:12:46.820Z,101193.75
2022-11-20T03:13:50.086Z,101196.94
2022-11-20T03:14:53.411Z,101203.63
2022-11-20T03:15:56.905Z,101201.13
2022-11-20T03:16:59.326Z,101201.50
2022-11-20T03:18:02.740Z,101196.47
2022-11-20T03:19:06.232Z,101202.41
2022-11-20T03:20:10.186Z,101202.16
2022-11-20T03:21:15.128Z,101197.16
2022-11-20T03:22:17.527Z,101197.81
2022-11-20T03:23:21.056Z,101201.72
2022-11-20T03:24:23.324Z,101200.25
2022-11-20T03:25:26.702Z,101198.31
2022-11-20T03:26:29.579Z,101198.75
2022-11-20T03:27:36.683Z,101199.31
2022-11-20T03:28:39.225Z,101196.59
2022-11-20T03:29:42.703Z,101201.38
2022-11-20T03:30:44.908Z,101204.91
2022-11-20T03:31:48.252Z,101195.81
2022-11-20T03:32:50.459Z,101208.28
2022-11-20T03:33:53.824Z,101207.38
2022-11-20T03:34:56.007Z,101203.25
2022-11-20T03:36:03.842Z,101206.88
2022-11-20T03:37:07.128Z,101202.47
2022-11-20T03:38:09.380Z,101203.81
2022-11-20T03:39:13.094Z,101206.97
2022-11-20T03:40:15.595Z,101205.09
2022-11-20T03:41:20.787Z,101205.88
2022-11-20T03:42:41.352Z,101204.53
2022-11-20T03:43:49.953Z,101209.16
2022-11-20T03:44:52.206Z,101205.59
2022-11-20T03:45:55.667Z,101205.88
2022-11-20T03:46:57.879Z,101209.28
2022-11-20T03:48:01.208Z,101207.81
2022-11-20T03:49:04.025Z,101208.09
2022-11-20T03:50:08.132Z,101211.09
2022-11-20T03:51:12.288Z,101215.19
2022-11-20T03:52:15.702Z,101213.13
2022-11-20T03:53:18.344Z,101224.06
2022-11-20T03:54:21.741Z,101228.81
2022-11-20T03:55:24.195Z,101221.41
2022-11-20T03:56:28.964Z,101227.88
2022-11-20T03:57:31.125Z,101222.72
2022-11-20T03:58:35.530Z,101222.16
2022-11-20T03:59:39.250Z,101223.97
2022-11-20T04:00:42.616Z,101219.22
2022-11-20T04:01:49.304Z,101220.28
2022-11-20T04:02:52.975Z,101220.06
2022-11-20T04:03:57.122Z,101221.97
2022-11-20T04:05:00.496Z,101218.38
2022-11-20T04:06:04.700Z,101223.13
2022-11-20T04:07:08.495Z,101234.38
2022-11-20T04:08:10.937Z,101227.84
2022-11-20T04:09:15.532Z,101227.69
2022-11-20T04:10:18.514Z,101234.59
2022-11-20T04:11:23.543Z,101234.69
2022-11-20T04:12:26.105Z,101233.88
2022-11-20T04:13:29.539Z,101239.38
2022-11-20T04:14:31.918Z,101231.59
2022-11-20T04:15:38.459Z,101231.44
2022-11-20T04:16:41.441Z,101236.81
2022-11-20T04:17:44.978Z,101237.84
2022-11-20T04:18:47.385Z,101242.63
2022-11-20T04:19:50.841Z,101233.44
2022-11-20T04:20:53.036Z,101234.50
2022-11-20T04:21:56.263Z,101243.34
2022-11-20T04:22:58.483Z,101248.22
2022-11-20T04:24:01.713Z,101237.97
2022-11-20T04:25:04.581Z,101241.41
2022-11-20T04:26:10.941Z,101241.13
2022-11-20T04:27:13.049Z,101245.03
2022-11-20T04:28:16.431Z,101244.84
2022-11-20T04:29:19.255Z,101245.91
2022-11-20T04:30:23.094Z,101249.59
2022-11-20T04:31:28.859Z,101250.19
2022-11-20T04:32:32.230Z,101249.97
2022-11-20T04:33:35.618Z,101249.53
2022-11-20T04:34:39.115Z,101256.66
2022-11-20T04:35:41.612Z,101252.66
2022-11-20T04:36:44.969Z,101259.59
2022-11-20T04:37:47.833Z,101255.25
2022-11-20T04:38:56.745Z,101260.09
2022-11-20T04:39:59.883Z,101256.78
2022-11-20T04:41:05.307Z,101258.06
2022-11-20T04:42:27.797Z,101261.72
2022-11-20T04:43:31.639Z,101258.72
2022-11-20T04:44:33.877Z,101256.59
2022-11-20T04:45:37.091Z,101262.72
2022-11-20T04:46:43.485Z,101261.00
2022-11-20T04:47:46.681Z,101261.09
2022-11-20T04:48:49.406Z,101262.50
2022-11-20T04:49:52.798Z,101267.94
2022-11-20T04:50:55.278Z,101261.19
2022-11-20T04:51:58.523Z,101266.88
2022-11-20T04:53:01.048Z,101271.06
2022-11-20T04:54:04.631Z,101263.81
2022-11-20T04:55:08.155Z,101261.72
2022-11-20T04:56:13.711Z,101264.00
2022-11-20T04:57:16.610Z,101257.88
2022-11-20T04:58:20.078Z,101258.38
2022-11-20T04:59:22.782Z,101267.25
2022-11-20T05:00:26.867Z,101254.41
2022-11-20T05:01:29.724Z,101259.28
2022-11-20T05:02:34.893Z,101253.19
2022-11-20T05:03:42.016Z,101259.16
2022-11-20T05:04:45.737Z,101259.50
2022-11-20T05:05:48.025Z,101265.09
2022-11-20T05:06:52.073Z,101267.16
2022-11-20T05:07:54.381Z,101264.13
2022-11-20T05:08:57.622Z,101264.34
2022-11-20T05:09:59.950Z,101276.72
2022-11-20T05:11:04.640Z,101273.72
2022-11-20T05:12:09.003Z,101274.13
2022-11-20T05:13:12.340Z,101276.91
2022-11-20T05:14:14.800Z,101270.31
2022-11-20T05:15:18.437Z,101276.72
2022-11-20T05:16:22.907Z,101274.50
2022-11-20T05:17:26.523Z,101283.91
2022-11-20T05:18:30.297Z,101283.06
2022-11-20T05:19:33.636Z,101282.81
2022-11-20T05:20:37.397Z,101279.72
2022-11-20T05:21:40.603Z,101286.78
2022-11-20T05:22:43.153Z,101284.66
2022-11-20T05:23:47.404Z,101282.34
2022-11-20T05:24:49.610Z,101285.94
2022-11-20T05:25:58.831Z,101290.56
2022-11-20T05:27:01.746Z,101291.81
2022-11-20T05:28:05.161Z,101296.72
2022-11-20T05:29:07.485Z,101290.16
2022-11-20T05:30:12.149Z,101294.88
2022-11-20T05:31:15.860Z,101292.00
2022-11-20T05:32:19.097Z,101290.88
2022-11-20T05:33:21.983Z,101296.81
2022-11-20T05:34:26.880Z,101299.34
2022-11-20T05:35:29.145Z,101296.63
2022-11-20T05:36:32.643Z,101299.06
2022-11-20T05:37:34.939Z,101296.56
2022-11-20T05:38:38.237Z,101290.59
2022-11-20T05:39:40.510Z,101294.16
2022-11-20T05:40:43.977Z,101298.50
2022-11-20T05:41:47.312Z,101293.66
2022-11-20T05:42:49.565Z,101291.72
2022-11-20T05:43:53.638Z,101301.28
2022-11-20T05:44:56.456Z,101293.19
2022-11-20T05:46:00.041Z,101295.50
2022-11-20T05:47:02.415Z,101297.41
2022-11-20T05:48:06.025Z,101301.75
2022-11-20T05:49:08.450Z,101302.44
2022-11-20T05:50:13.444Z,101301.41
2022-11-20T05:51:17.944Z,101302.50
2022-11-20T05:52:21.503Z,101305.16
2022-11-20T05:53:27.409Z,101309.22
2022-11-20T05:54:31.439Z,101310.66
2022-11-20T05:55:33.679Z,101308.03
2022-11-20T05:56:37.476Z,101316.88
2022-11-20T05:57:39.779Z,101316.19
2022-11-20T05:58:43.613Z,101318.16
2022-11-20T05:59:46.006Z,101318.06
2022-11-20T06:00:49.611Z,101315.59
2022-11-20T06:01:52.792Z,101319.88
2022-11-20T06:02:56.498Z,101315.13
2022-11-20T06:03:58.826Z,101316.63
2022-11-20T06:05:02.305Z,101316.13
2022-11-20T06:06:07.192Z,101317.38
2022-11-20T06:07:10.549Z,101319.91
2022-11-20T06:08:12.989Z,101317.38
2022-11-20T06:09:16.473Z,101327.50
2022-11-20T06:10:18.936Z,101326.13
2022-11-20T06:11:22.365Z,101325.94
2022-11-20T06:12:24.695Z,101328.69
2022-11-20T06:13:27.956Z,101331.47
2022-11-20T06:14:31.243Z,101329.66
2022-11-20T06:15:33.591Z,101332.88
2022-11-20T06:16:37.061Z,101334.41
2022-11-20T06:17:39.303Z,101334.06
2022-11-20T06:18:42.658Z,101326.88
2022-11-20T06:19:44.819Z,101337.72
2022-11-20T06:20:49.082Z,101335.94
2022-11-20T06:21:53.052Z,101338.25
2022-11-20T06:22:56.386Z,101336.88
2022-11-20T06:23:58.850Z,101338.66
2022-11-20T06:25:02.277Z,101338.72
2022-11-20T06:26:06.184Z,101331.72
2022-11-20T06:27:09.620Z,101341.78
2022-11-20T06:28:11.927Z,101341.13
2022-11-20T06:29:15.268Z,101336.19
2022-11-20T06:30:17.617Z,101334.53
2022-11-20T06:31:23.591Z,101341.06
2022-11-20T06:32:25.883Z,101330.81
2022-11-20T06:33:29.891Z,101341.03
2022-11-20T06:34:32.244Z,101336.03
2022-11-20T06:35:35.758Z,101336.38
2022-11-20T06:36:39.245Z,101344.69
2022-11-20T06:37:43.899Z,101341.41
2022-11-20T06:38:47.654Z,101337.47
2022-11-20T06:39:49.945Z,101338.97
2022-11-20T06:40:53.282Z,101339.56
2022-11-20T06:41:59.031Z,101340.88
2022-11-20T06:43:01.753Z,101333.25
2022-11-20T06:44:06.538Z,101335.50
2022-11-20T06:45:10.303Z,101333.34
2022-11-20T06:46:15.649Z,101330.22
2022-11-20T06:47:18.051Z,101334.94
2022-11-20T06:48:21.313Z,101334.66
2022-11-20T06:49:23.769Z,101340.91
2022-11-20T06:50:27.601Z,101338.97
2022-11-20T06:51:29.799Z,101333.50
2022-11-20T06:52:33.149Z,101342.13
2022-11-20T06:53:37.800Z,101340.38
2022-11-20T06:54:41.173Z,101334.16
2022-11-20T06:55:44.883Z,101346.72
2022-11-20T06:56:49.446Z,101344.88
2022-11-20T06:57:55.843Z,101342.94
2022-11-20T06:58:59.451Z,101342.72
2022-11-20T07:00:01.796Z,101345.19
2022-11-20T07:01:07.972Z,101348.69
2022-11-20T07:02:11.908Z,101351.16
2022-11-20T07:03:15.571Z,101359.59
2022-11-20T07:04:17.906Z,101354.22
2022-11-20T07:05:21.214Z,101358.97
2022-11-20T07:06:24.600Z,101357.38
2022-11-20T07:07:27.182Z,101359.81
2022-11-20T07:08:30.572Z,101368.28
2022-11-20T07:09:34.673Z,101362.28
2022-11-20T07:10:38.292Z,101357.03
2022-11-20T07:11:41.576Z,101357.16
2022-11-20T07:12:43.825Z,101366.34
2022-11-20T07:13:47.321Z,101358.22
2022-11-20T07:14:49.777Z,101355.03
2022-11-20T07:15:53.117Z,101358.84
2022-11-20T07:16:55.280Z,101353.94
2022-11-20T07:18:01.323Z,101363.16
2022-11-20T07:19:03.517Z,101351.06
2022-11-20T07:20:07.463Z,101360.94
2022-11-20T07:21:11.581Z,101359.44
2022-11-20T07:22:14.864Z,101364.13
2022-11-20T07:23:17.228Z,101367.50
2022-11-20T07:24:20.613Z,101364.69
2022-11-20T07:25:24.908Z,101371.09
2022-11-20T07:26:28.608Z,101379.88
2022-11-20T07:27:31.104Z,101375.47
2022-11-20T07:28:34.830Z,101384.38
2022-11-20T07:29:37.284Z,101383.88
2022-11-20T07:30:40.726Z,101388.88
2022-11-20T07:31:43.138Z,101385.47
2022-11-20T07:32:49.516Z,101382.56
2022-11-20T07:33:52.800Z,101384.75
2022-11-20T07:34:55.054Z,101387.78
2022-11-20T07:36:00.415Z,101392.72
2022-11-20T07:37:07.440Z,101400.94
2022-11-20T07:38:13.648Z,101398.91
2022-11-20T07:39:15.891Z,101400.78
2022-11-20T07:40:19.842Z,101407.81
2022-11-20T07:41:23.952Z,101411.88
2022-11-20T07:42:27.157Z,101404.56
2022-11-20T07:43:30.412Z,101401.84
2022-11-20T07:44:32.681Z,101402.28
2022-11-20T07:45:35.970Z,101412.34
2022-11-20T07:46:38.203Z,101413.63
2022-11-20T07:47:41.454Z,101412.34
2022-11-20T07:48:44.688Z,101411.88
2022-11-20T07:49:47.147Z,101420.28
2022-11-20T07:50:50.466Z,101414.94
2022-11-20T07:51:54.769Z,101423.28
2022-11-20T07:53:04.788Z,101414.72
2022-11-20T07:54:08.283Z,101410.53
2022-11-20T07:55:11.490Z,101411.09
2022-11-20T07:56:15.581Z,101417.94
2022-11-20T07:57:20.468Z,101418.25
2022-11-20T07:58:25.393Z,101425.84
2022-11-20T07:59:28.771Z,101419.56
2022-11-20T08:00:30.944Z,101418.59
2022-11-20T08:01:34.288Z,101421.56
2022-11-20T08:02:39.994Z,101420.66
2022-11-20T08:03:43.201Z,101421.72
2022-11-20T08:04:45.387Z,101415.28
2022-11-20T08:05:48.765Z,101424.66
2022-11-20T08:06:50.911Z,101424.25
2022-11-20T08:07:54.107Z,101425.25
2022-11-20T08:08:56.447Z,101428.63
2022-11-20T08:09:59.926Z,101442.50
2022-11-20T08:11:16.895Z,101435.41
2022-11-20T08:12:40.375Z,101442.09
2022-11-20T08:14:01.354Z,101445.59
2022-11-20T08:15:09.808Z,101440.69
2022-11-20T08:16:14.846Z,101444.63
2022-11-20T08:17:18.099Z,101443.25
2022-11-20T08:18:31.134Z,101448.38
2022-11-20T08:19:35.290Z,101451.56
2022-11-20T08:20:37.737Z,101452.81
2022-11-20T08:21:41.322Z,101457.44
2022-11-20T08:22:43.551Z,101456.38
2022-11-20T08:23:47.053Z,101461.53
2022-11-20T08:24:50.434Z,101464.25
2022-11-20T08:25:52.972Z,101468.16
2022-11-20T08:26:56.630Z,101474.31
2022-11-20T08:28:08.950Z,101466.25
2022-11-20T08:29:19.389Z,101471.63
2022-11-20T08:30:21.794Z,101471.34
2022-11-20T08:31:25.896Z,101475.59
2022-11-20T08:32:27.992Z,101469.22
2022-11-20T08:33:33.719Z,101472.53
2022-11-20T08:34:36.962Z,101473.44
2022-11-20T08:35:39.684Z,101472.25
2022-11-20T08:36:42.823Z,101474.72
2022-11-20T08:37:48.037Z,101478.81
2022-11-20T08:38:52.294Z,101471.41
2022-11-20T08:39:55.269Z,101471.63
2022-11-20T08:41:17.100Z,101469.09
2022-11-20T08:42:20.500Z,101470.88
2022-11-20T08:43:24.105Z,101470.91
2022-11-20T08:44:27.428Z,101473.16
2022-11-20T08:45:33.985Z,101476.09
2022-11-20T08:46:40.384Z,101472.63
2022-11-20T08:47:43.130Z,101469.66
2022-11-20T08:48:46.858Z,101471.13
2022-11-20T08:49:50.311Z,101471.63
2022-11-20T08:50:52.702Z,101478.31
2022-11-20T08:51:56.467Z,101475.09
2022-11-20T08:53:04.644Z,101479.50
2022-11-20T08:54:09.639Z,101479.59
2022-11-20T08:55:12.216Z,101475.13
2022-11-20T08:56:16.027Z,101483.78
2022-11-20T08:57:18.355Z,101490.66
2022-11-20T08:58:21.792Z,101487.88
2022-11-20T08:59:50.941Z,101499.19
2022-11-20T09:00:48.970Z,101490.81
2022-11-20T09:01:52.209Z,101500.34
2022-11-20T09:02:54.358Z,101494.16
2022-11-20T09:03:58.744Z,101491.94
2022-11-20T09:05:03.372Z,101495.00
2022-11-20T09:06:09.537Z,101494.16
2022-11-20T09:07:12.187Z,101489.16
2022-11-20T09:08:15.593Z,101482.72
2022-11-20T09:09:19.327Z,101484.72
2022-11-20T09:10:24.427Z,101475.84
2022-11-20T09:11:28.356Z,101480.94
2022-11-20T09:12:30.667Z,101483.44
2022-11-20T09:13:35.594Z,101481.09
2022-11-20T09:14:40.158Z,101469.50
2022-11-20T09:15:42.425Z,101472.88
2022-11-20T09:16:47.221Z,101473.97
2022-11-20T09:17:52.731Z,101474.47
2022-11-20T09:19:20.182Z,101471.38
2022-11-20T09:20:19.892Z,101475.09
2022-11-20T09:21:24.004Z,101474.41
2022-11-20T09:22:27.882Z,101482.06
2022-11-20T09:23:34.681Z,101475.34
2022-11-20T09:24:38.226Z,101479.16
2022-11-20T09:25:40.435Z,101480.56
2022-11-20T09:26:43.717Z,101479.84
2022-11-20T09:27:47.333Z,101479.91
2022-11-20T09:28:55.343Z,101485.53
2022-11-20T09:30:00.593Z,101476.44
2022-11-20T09:31:07.423Z,101481.91
2022-11-20T09:32:09.816Z,101477.75
2022-11-20T09:33:13.548Z,101484.59
2022-11-20T09:34:16.809Z,101478.81
2022-11-20T09:35:20.545Z,101484.66
2022-11-20T09:36:23.857Z,101480.00
2022-11-20T09:37:27.096Z,101481.41
2022-11-20T09:38:30.531Z,101477.75
2022-11-20T09:39:33.927Z,101473.19
2022-11-20T09:40:40.334Z,101489.44
2022-11-20T09:42:05.956Z,101480.13
2022-11-20T09:43:17.860Z,101490.94
2022-11-20T09:44:34.332Z,101488.09
2022-11-20T09:45:56.598Z,101490.34
2022-11-20T09:47:08.842Z,101493.13
2022-11-20T09:48:37.858Z,101497.09
2022-11-20T09:49:56.598Z,101486.31
2022-11-20T09:51:08.371Z,101499.97
2022-11-20T09:52:24.193Z,101500.38
2022-11-20T09:53:35.091Z,101497.75
2022-11-20T09:54:41.510Z,101502.72
2022-11-20T09:55:44.281Z,101502.31
2022-11-20T09:56:52.285Z,101502.72
2022-11-20T09:57:56.654Z,101505.00
2022-11-20T09:59:03.604Z,101506.13
2022-11-20T10:00:12.506Z,101500.91
2022-11-20T10:01:20.422Z,101497.00
2022-11-20T10:02:33.264Z,101508.13
2022-11-20T10:03:44.217Z,101506.50
2022-11-20T10:04:53.791Z,101507.66
2022-11-20T10:05:57.757Z,101507.81
2022-11-20T10:07:33.613Z,101511.00
2022-11-20T10:08:34.039Z,101511.41
2022-11-20T10:09:38.387Z,101517.47
2022-11-20T10:10:47.355Z,101516.03
2022-11-20T10:12:07.839Z,101521.88
2022-11-20T10:13:31.047Z,101520.09
2022-11-20T10:14:48.385Z,101525.25
2022-11-20T10:16:05.653Z,101519.22
2022-11-20T10:17:20.697Z,101518.31
2022-11-20T10:18:41.056Z,101524.16
2022-11-20T10:19:56.561Z,101519.94
2022-11-20T10:21:08.495Z,101526.38
2022-11-20T10:22:23.260Z,101527.69
2022-11-20T10:23:44.696Z,101531.25
2022-11-20T10:24:57.404Z,101525.81
2022-11-20T10:26:03.328Z,101526.69
2022-11-20T10:27:26.979Z,101525.28
2022-11-20T10:28:39.663Z,101524.69
2022-11-20T10:29:47.916Z,101522.47
2022-11-20T10:30:57.965Z,101519.06
2022-11-20T10:32:04.890Z,101524.75
2022-11-20T10:33:19.206Z,101529.78
2022-11-20T10:34:27.564Z,101524.59
2022-11-20T10:35:39.064Z,101530.09
2022-11-20T10:36:46.258Z,101525.03
2022-11-20T10:37:55.560Z,101523.75
2022-11-20T10:39:02.164Z,101530.09
2022-11-20T10:40:19.764Z,101520.41
2022-11-20T10:41:27.000Z,101514.66
2022-11-20T10:42:37.917Z,101520.25
2022-11-20T10:43:40.433Z,101523.56
2022-11-20T10:45:06.894Z,101519.50
2022-11-20T10:46:15.353Z,101522.44
2022-11-20T10:47:22.100Z,101520.31
2022-11-20T10:48:28.990Z,101526.91
2022-11-20T10:49:35.415Z,101521.88
2022-11-20T10:50:43.152Z,101523.41
2022-11-20T10:52:01.652Z,101530.28
2022-11-20T10:53:11.582Z,101519.72
2022-11-20T10:54:23.074Z,101527.16
2022-11-20T10:55:35.211Z,101524.16
2022-11-20T10:56:48.475Z,101519.91
2022-11-20T10:58:00.396Z,101514.00
2022-11-20T10:59:37.946Z,101520.81
2022-11-20T11:00:41.275Z,101517.72
2022-11-20T11:01:43.983Z,101521.38
2022-11-20T11:02:50.331Z,101505.78
2022-11-20T11:03:57.128Z,101515.22
2022-11-20T11:05:10.385Z,101509.59
2022-11-20T11:06:28.336Z,101503.28
2022-11-20T11:07:38.337Z,101504.22
2022-11-20T11:08:41.292Z,101500.91
2022-11-20T11:09:49.009Z,101505.31
2022-11-20T11:10:56.102Z,101498.94
2022-11-20T11:12:02.918Z,101495.22
2022-11-20T11:13:09.420Z,101495.38
2022-11-20T11:14:13.262Z,101489.63
2022-11-20T11:15:27.798Z,101491.44
2022-11-20T11:16:30.056Z,101489.22
2022-11-20T11:17:34.696Z,101493.03
2022-11-20T11:18:36.999Z,101499.91
2022-11-20T11:19:41.655Z,101499.44
2022-11-20T11:20:52.607Z,101498.28
2022-11-20T11:21:57.803Z,101489.41
2022-11-20T11:23:02.313Z,101495.09
2022-11-20T11:24:34.841Z,101482.59
2022-11-20T11:25:34.762Z,101488.38
2022-11-20T11:26:37.155Z,101490.53
2022-11-20T11:27:48.848Z,101482.53
2022-11-20T11:28:56.549Z,101482.44
2022-11-20T11:30:16.358Z,101479.00
2022-11-20T11:31:25.983Z,101473.81
2022-11-20T11:32:28.410Z,101470.25
2022-11-20T11:33:34.656Z,101484.06
2022-11-20T11:34:37.176Z,101471.19
2022-11-20T11:35:51.417Z,101466.00
2022-11-20T11:36:58.362Z,101467.28
2022-11-20T11:38:08.126Z,101460.81
2022-11-20T11:39:15.963Z,101462.44
2022-11-20T11:40:25.184Z,101455.56
2022-11-20T11:41:34.245Z,101448.41
2022-11-20T11:42:36.961Z,101442.34
2022-11-20T11:43:58.823Z,101443.88
2022-11-20T11:45:09.343Z,101449.06
2022-11-20T11:46:33.113Z,101427.50
2022-11-20T11:47:46.308Z,101435.25
2022-11-20T11:48:58.480Z,101417.09
2022-11-20T11:50:18.122Z,101418.41
2022-11-20T11:51:23.334Z,101426.94
2022-11-20T11:52:27.865Z,101420.25
2022-11-20T11:53:32.473Z,101430.38
2022-11-20T11:54:39.960Z,101424.50
2022-11-20T11:55:48.008Z,101426.53
2022-11-20T11:56:52.232Z,101423.41
2022-11-20T11:58:03.157Z,101416.28
2022-11-20T11:59:14.716Z,101420.84
2022-11-20T12:00:22.094Z,101420.84
2022-11-20T12:01:33.935Z,101419.41
2022-11-20T12:02:40.937Z,101408.78
2022-11-20T12:04:00.575Z,101404.75
2022-11-20T12:05:15.556Z,101402.44
2022-11-20T12:06:18.784Z,101399.56
2022-11-20T12:07:46.582Z,101403.84
2022-11-20T12:08:56.132Z,101400.25
2022-11-20T12:09:59.826Z,101405.47
2022-11-20T12:11:08.750Z,101405.97
2022-11-20T12:12:16.629Z,101412.81
2022-11-20T12:13:40.364Z,101415.41
2022-11-20T12:14:48.666Z,101416.06
2022-11-20T12:15:51.249Z,101411.22
2022-11-20T12:16:56.869Z,101411.91
2022-11-20T12:17:59.111Z,101408.16
2022-11-20T12:19:02.591Z,101414.47
2022-11-20T12:20:13.219Z,101411.50
2022-11-20T12:21:25.508Z,101409.72
2022-11-20T12:22:35.578Z,101409.72
2022-11-20T12:23:47.635Z,101418.09
2022-11-20T12:24:57.658Z,101422.69
2022-11-20T12:26:07.659Z,101430.34
2022-11-20T12:27:34.723Z,101440.22
2022-11-20T12:28:51.328Z,101443.72
2022-11-20T12:30:01.027Z,101439.22